createdAt,value
2019-02-27T00:01:05.267Z,21.42
2019-02-27T00:02:06.777Z,23.27
2019-02-27T00:03:07.896Z,19.45
2019-02-27T00:04:09.374Z,17.73
2019-02-27T00:05:10.485Z,26.48
2019-02-27T00:06:12.931Z,21.42
2019-02-27T00:07:15.019Z,21.70
2019-02-27T00:08:16.369Z,19.95
2019-02-27T00:09:17.503Z,20.20
2019-02-27T00:10:18.921Z,25.08
2019-02-27T00:11:20.027Z,23.67
2019-02-27T00:12:21.140Z,21.35
2019-02-27T00:13:24.709Z,23.07
2019-02-27T00:14:25.524Z,24.37
2019-02-27T00:15:26.929Z,25.45
2019-02-27T00:16:28.045Z,23.83
2019-02-27T00:17:29.189Z,23.38
2019-02-27T00:18:30.552Z,21.62
2019-02-27T00:19:31.978Z,23.05
2019-02-27T00:20:36.627Z,20.50
2019-02-27T00:21:36.178Z,21.80
2019-02-27T00:22:37.297Z,19.65
2019-02-27T00:23:38.760Z,20.17
2019-02-27T00:24:39.892Z,19.85
2019-02-27T00:25:41.009Z,21.20
2019-02-27T00:26:42.459Z,20.72
2019-02-27T00:27:48.809Z,20.85
2019-02-27T00:28:47.698Z,21.07
2019-02-27T00:29:48.881Z,24.23
2019-02-27T00:30:49.992Z,21.93
2019-02-27T00:31:51.500Z,17.70
2019-02-27T00:32:52.949Z,21.95
2019-02-27T00:33:54.065Z,18.67
2019-02-27T00:34:55.193Z,22.00
2019-02-27T00:35:56.505Z,24.25
2019-02-27T00:36:57.639Z,17.92
2019-02-27T00:37:59.250Z,21.57
2019-02-27T00:39:00.372Z,18.82
2019-02-27T00:40:05.349Z,19.40
2019-02-27T00:41:04.517Z,20.88
2019-02-27T00:42:05.868Z,23.65
2019-02-27T00:43:06.981Z,22.77
2019-02-27T00:44:08.096Z,22.40
2019-02-27T00:45:10.240Z,23.02
2019-02-27T00:46:13.384Z,22.37
2019-02-27T00:47:19.719Z,22.90
2019-02-27T00:48:17.945Z,22.32
2019-02-27T00:49:19.380Z,20.90
2019-02-27T00:50:20.512Z,21.65
2019-02-27T00:51:21.941Z,22.90
2019-02-27T00:52:23.212Z,24.37
2019-02-27T00:53:25.175Z,22.62
2019-02-27T00:54:26.344Z,22.20
2019-02-27T00:55:27.468Z,23.25
2019-02-27T00:56:28.583Z,22.22
2019-02-27T00:57:29.711Z,22.60
2019-02-27T00:58:31.116Z,22.70
2019-02-27T00:59:33.135Z,24.18
2019-02-27T01:00:38.892Z,21.45
2019-02-27T01:01:38.505Z,18.57
2019-02-27T01:02:39.615Z,19.90
2019-02-27T01:03:41.384Z,23.98
2019-02-27T01:04:42.512Z,23.87
2019-02-27T01:05:43.953Z,22.42
2019-02-27T01:06:47.313Z,21.45
2019-02-27T01:07:48.365Z,22.40
2019-02-27T01:08:49.477Z,24.75
2019-02-27T01:09:50.608Z,22.40
2019-02-27T01:10:51.713Z,20.80
2019-02-27T01:11:53.415Z,25.65
2019-02-27T01:12:57.961Z,24.07
2019-02-27T01:13:57.802Z,20.25
2019-02-27T01:14:58.932Z,24.95
2019-02-27T01:16:00.044Z,23.62
2019-02-27T01:17:01.429Z,24.15
2019-02-27T01:18:02.544Z,25.05
2019-02-27T01:19:04.804Z,23.92
2019-02-27T01:20:11.529Z,26.65
2019-02-27T01:21:12.916Z,23.65
2019-02-27T01:22:14.028Z,24.30
2019-02-27T01:23:15.397Z,23.52
2019-02-27T01:24:17.520Z,21.42
2019-02-27T01:25:22.863Z,27.22
2019-02-27T01:26:22.584Z,19.80
2019-02-27T01:27:23.710Z,25.40
2019-02-27T01:28:25.069Z,22.62
2019-02-27T01:29:26.192Z,21.30
2019-02-27T01:30:27.625Z,21.35
2019-02-27T01:31:28.753Z,21.25
2019-02-27T01:32:31.166Z,24.50
2019-02-27T01:33:37.781Z,20.97
2019-02-27T01:34:35.568Z,22.20
2019-02-27T01:35:36.693Z,21.15
2019-02-27T01:36:37.811Z,21.85
2019-02-27T01:37:38.972Z,23.60
2019-02-27T01:38:40.085Z,20.27
2019-02-27T01:39:41.771Z,24.45
2019-02-27T01:40:43.164Z,21.02
2019-02-27T01:41:44.282Z,20.37
2019-02-27T01:42:45.394Z,21.25
2019-02-27T01:43:46.762Z,22.15
2019-02-27T01:44:47.874Z,21.37
2019-02-27T01:45:48.995Z,18.67
2019-02-27T01:46:50.364Z,20.32
2019-02-27T01:47:51.580Z,22.62
2019-02-27T01:48:53.043Z,22.90
2019-02-27T01:49:54.148Z,19.55
2019-02-27T01:50:55.852Z,22.13
2019-02-27T01:51:59.201Z,21.12
2019-02-27T01:53:00.371Z,19.95
2019-02-27T01:54:01.729Z,22.05
2019-02-27T01:55:03.386Z,23.10
2019-02-27T01:56:04.756Z,23.00
2019-02-27T01:57:05.864Z,22.55
2019-02-27T01:58:09.581Z,22.07
2019-02-27T01:59:10.356Z,19.17
2019-02-27T02:00:11.953Z,20.10
2019-02-27T02:01:13.079Z,24.55
2019-02-27T02:02:14.189Z,21.85
2019-02-27T02:03:15.564Z,17.55
2019-02-27T02:04:20.046Z,19.17
2019-02-27T02:05:19.697Z,26.02
2019-02-27T02:06:22.573Z,22.15
2019-02-27T02:07:23.766Z,20.00
2019-02-27T02:08:24.884Z,19.25
2019-02-27T02:09:30.280Z,19.50
2019-02-27T02:10:31.395Z,19.95
2019-02-27T02:11:32.755Z,19.27
2019-02-27T02:12:33.931Z,21.50
2019-02-27T02:13:50.654Z,20.20
2019-02-27T02:14:58.368Z,24.35
2019-02-27T02:16:24.108Z,21.85
2019-02-27T02:17:41.649Z,20.43
2019-02-27T02:18:49.370Z,21.00
2019-02-27T02:20:09.119Z,21.97
2019-02-27T02:21:32.113Z,20.68
2019-02-27T02:22:38.929Z,21.75
2019-02-27T02:24:21.206Z,22.00
2019-02-27T02:25:29.417Z,19.57
2019-02-27T02:28:48.774Z,21.15
2019-02-27T02:30:02.530Z,21.05
2019-02-27T02:31:07.850Z,21.02
2019-02-27T02:32:30.803Z,22.65
2019-02-27T02:33:44.124Z,21.50
2019-02-27T02:35:05.806Z,23.60
2019-02-27T02:36:29.089Z,22.93
2019-02-27T02:37:37.815Z,22.75
2019-02-27T02:38:49.717Z,24.63
2019-02-27T02:40:12.624Z,23.73
2019-02-27T02:41:32.173Z,25.72
2019-02-27T02:42:53.710Z,20.60
2019-02-27T02:44:20.774Z,21.77
2019-02-27T02:45:26.346Z,20.65
2019-02-27T02:46:48.043Z,22.15
2019-02-27T02:48:05.147Z,22.73
2019-02-27T02:49:13.117Z,21.60
2019-02-27T02:50:29.829Z,20.23
2019-02-27T02:51:37.329Z,19.10
2019-02-27T02:53:04.313Z,20.12
2019-02-27T02:54:27.157Z,20.17
2019-02-27T02:55:38.067Z,26.50
2019-02-27T02:57:11.981Z,21.50
2019-02-27T02:58:20.102Z,18.45
2019-02-27T02:59:50.936Z,23.38
2019-02-27T03:01:01.728Z,22.02
2019-02-27T03:02:12.577Z,20.80
2019-02-27T03:04:47.976Z,24.02
2019-02-27T03:06:22.950Z,20.60
2019-02-27T03:07:44.879Z,21.30
2019-02-27T03:09:15.235Z,23.73
2019-02-27T03:10:26.005Z,25.52
2019-02-27T03:11:54.150Z,23.55
2019-02-27T03:13:21.349Z,22.58
2019-02-27T03:14:43.916Z,17.15
2019-02-27T03:15:49.110Z,22.98
2019-02-27T03:17:00.061Z,22.48
2019-02-27T03:19:19.404Z,20.82
2019-02-27T03:20:27.306Z,21.55
2019-02-27T03:21:44.185Z,21.95
2019-02-27T03:22:58.494Z,22.42
2019-02-27T03:24:27.869Z,21.57
2019-02-27T03:25:49.237Z,25.15
2019-02-27T03:27:12.739Z,23.83
2019-02-27T03:28:40.953Z,22.35
2019-02-27T03:29:56.625Z,24.65
2019-02-27T03:31:16.410Z,28.12
2019-02-27T03:32:29.203Z,23.12
2019-02-27T03:34:05.533Z,27.02
2019-02-27T03:35:08.001Z,24.15
2019-02-27T03:36:38.992Z,24.18
2019-02-27T03:37:48.368Z,24.43
2019-02-27T03:39:10.607Z,24.98
2019-02-27T03:40:35.461Z,28.00
2019-02-27T03:41:59.410Z,28.17
2019-02-27T03:43:20.977Z,23.47
2019-02-27T03:44:34.521Z,23.80
2019-02-27T03:45:42.661Z,24.60
2019-02-27T03:46:47.889Z,28.95
2019-02-27T03:48:07.415Z,25.68
2019-02-27T03:49:46.049Z,25.12
2019-02-27T03:50:56.764Z,22.90
2019-02-27T03:52:13.578Z,19.12
2019-02-27T03:53:27.445Z,22.62
2019-02-27T03:54:58.129Z,23.18
2019-02-27T03:56:26.053Z,23.38
2019-02-27T03:57:46.108Z,20.08
2019-02-27T03:59:08.069Z,22.80
2019-02-27T04:00:19.190Z,25.65
2019-02-27T04:01:22.544Z,24.72
2019-02-27T04:02:38.908Z,24.55
2019-02-27T04:03:55.408Z,19.77
2019-02-27T04:05:09.544Z,24.25
2019-02-27T04:06:32.859Z,25.85
2019-02-27T04:08:08.557Z,22.32
2019-02-27T04:09:09.853Z,22.15
2019-02-27T04:10:11.415Z,24.45
2019-02-27T04:11:12.563Z,24.12
2019-02-27T04:12:16.391Z,23.67
2019-02-27T04:13:17.029Z,23.60
2019-02-27T04:14:26.490Z,22.37
2019-02-27T04:15:27.801Z,19.45
2019-02-27T04:16:30.487Z,21.12
2019-02-27T04:17:31.803Z,25.90
2019-02-27T04:18:33.031Z,24.02
2019-02-27T04:19:38.831Z,25.20
2019-02-27T04:20:37.485Z,24.75
2019-02-27T04:21:38.606Z,22.17
2019-02-27T04:22:39.777Z,23.40
2019-02-27T04:23:40.907Z,29.37
2019-02-27T04:24:42.026Z,22.07
2019-02-27T04:25:43.188Z,24.12
2019-02-27T04:26:44.377Z,20.65
2019-02-27T04:27:45.494Z,25.60
2019-02-27T04:28:46.922Z,24.80
2019-02-27T04:29:48.050Z,21.73
2019-02-27T04:30:51.270Z,24.25
2019-02-27T04:31:52.201Z,22.95
2019-02-27T04:32:53.600Z,17.37
2019-02-27T04:33:59.740Z,20.60
2019-02-27T04:34:57.744Z,22.37
2019-02-27T04:35:59.157Z,26.35
2019-02-27T04:37:00.508Z,23.10
2019-02-27T04:38:01.621Z,23.75
2019-02-27T04:39:05.052Z,23.18
2019-02-27T04:40:10.782Z,21.95
2019-02-27T04:41:10.005Z,25.60
2019-02-27T04:42:11.380Z,25.08
2019-02-27T04:43:12.525Z,24.37
2019-02-27T04:44:13.688Z,22.77
2019-02-27T04:45:14.808Z,23.70
2019-02-27T04:46:15.912Z,26.52
2019-02-27T04:47:17.353Z,26.10
2019-02-27T04:48:18.497Z,25.10
2019-02-27T04:49:19.600Z,23.75
2019-02-27T04:50:20.836Z,26.33
2019-02-27T04:51:21.973Z,27.20
2019-02-27T04:52:24.403Z,25.23
2019-02-27T04:53:25.625Z,23.27
2019-02-27T04:54:26.977Z,23.65
2019-02-27T04:55:28.108Z,24.55
2019-02-27T04:56:29.457Z,23.95
2019-02-27T04:57:33.400Z,25.80
2019-02-27T04:58:33.584Z,26.42
2019-02-27T04:59:34.715Z,26.07
2019-02-27T05:00:35.828Z,25.30
2019-02-27T05:01:37.416Z,25.57
2019-02-27T05:02:38.624Z,27.85
2019-02-27T05:03:40.088Z,24.50
2019-02-27T05:04:41.273Z,26.20
2019-02-27T05:05:42.515Z,27.50
2019-02-27T05:06:46.869Z,25.85
2019-02-27T05:07:46.695Z,23.98
2019-02-27T05:08:47.821Z,27.13
2019-02-27T05:09:49.896Z,26.02
2019-02-27T05:10:51.181Z,25.15
2019-02-27T05:11:52.633Z,25.72
2019-02-27T05:12:53.750Z,27.95
2019-02-27T05:13:54.904Z,25.50
2019-02-27T05:14:56.100Z,25.37
2019-02-27T05:15:57.450Z,23.87
2019-02-27T05:16:59.666Z,26.77
2019-02-27T05:18:00.864Z,25.35
2019-02-27T05:19:04.042Z,26.57
2019-02-27T05:20:11.678Z,29.10
2019-02-27T05:21:10.511Z,27.37
2019-02-27T05:22:11.638Z,23.75
2019-02-27T05:23:13.092Z,23.27
2019-02-27T05:24:14.217Z,28.17
2019-02-27T05:25:15.661Z,30.00
2019-02-27T05:26:16.786Z,25.17
2019-02-27T05:27:18.216Z,24.95
2019-02-27T05:28:19.768Z,25.15
2019-02-27T05:29:20.899Z,26.42
2019-02-27T05:30:22.016Z,25.12
2019-02-27T05:31:23.136Z,25.17
2019-02-27T05:32:25.249Z,24.90
2019-02-27T05:33:27.536Z,25.75
2019-02-27T05:34:28.673Z,25.48
2019-02-27T05:35:29.808Z,24.20
2019-02-27T05:36:31.634Z,25.20
2019-02-27T05:37:36.098Z,23.77
2019-02-27T05:38:36.457Z,26.23
2019-02-27T05:39:37.868Z,23.83
2019-02-27T05:40:39.017Z,29.30
2019-02-27T05:41:40.127Z,28.90
2019-02-27T05:42:41.239Z,28.30
2019-02-27T05:43:47.555Z,29.37
2019-02-27T05:44:45.376Z,31.62
2019-02-27T05:45:46.493Z,28.40
2019-02-27T05:46:47.613Z,31.77
2019-02-27T05:47:49.077Z,27.95
2019-02-27T05:48:50.842Z,31.23
2019-02-27T05:49:53.231Z,29.48
2019-02-27T05:50:54.949Z,26.10
2019-02-27T05:51:56.388Z,31.48
2019-02-27T05:52:57.820Z,26.90
2019-02-27T05:53:59.191Z,31.90
2019-02-27T05:55:00.806Z,32.23
2019-02-27T05:56:01.938Z,28.32
2019-02-27T05:57:03.285Z,28.05
2019-02-27T05:58:04.428Z,24.55
2019-02-27T05:59:05.542Z,27.55
2019-02-27T06:00:10.073Z,24.57
2019-02-27T06:01:11.206Z,20.27
2019-02-27T06:02:12.332Z,25.25
2019-02-27T06:03:15.935Z,27.15
2019-02-27T06:04:18.139Z,25.27
2019-02-27T06:05:19.521Z,25.77
2019-02-27T06:06:20.629Z,26.65
2019-02-27T06:07:21.733Z,21.40
2019-02-27T06:08:22.836Z,31.55
2019-02-27T06:09:23.980Z,21.85
2019-02-27T06:10:25.092Z,21.55
2019-02-27T06:11:27.137Z,25.15
2019-02-27T06:12:29.584Z,22.17
2019-02-27T06:13:30.688Z,26.60
2019-02-27T06:14:31.812Z,25.02
2019-02-27T06:15:33.293Z,25.43
2019-02-27T06:16:37.074Z,26.62
2019-02-27T06:17:43.346Z,24.23
2019-02-27T06:18:40.632Z,21.20
2019-02-27T06:19:41.757Z,28.10
2019-02-27T06:20:42.884Z,26.75
2019-02-27T06:21:44.284Z,25.65
2019-02-27T06:22:45.408Z,26.25
2019-02-27T06:23:46.763Z,25.07
2019-02-27T06:24:48.238Z,24.37
2019-02-27T06:25:49.352Z,25.97
2019-02-27T06:26:50.477Z,24.85
2019-02-27T06:27:51.598Z,27.58
2019-02-27T06:29:01.570Z,27.93
2019-02-27T06:30:09.022Z,24.67
2019-02-27T06:31:10.456Z,24.87
2019-02-27T06:32:12.329Z,27.20
2019-02-27T06:33:13.600Z,27.40
2019-02-27T06:34:14.726Z,27.50
2019-02-27T06:35:15.956Z,26.05
2019-02-27T06:36:17.319Z,26.48
2019-02-27T06:37:18.421Z,25.90
2019-02-27T06:38:19.530Z,22.20
2019-02-27T06:39:20.645Z,25.08
2019-02-27T06:40:21.771Z,31.52
2019-02-27T06:41:23.288Z,32.33
2019-02-27T06:42:24.742Z,26.57
2019-02-27T06:43:27.322Z,26.82
2019-02-27T06:44:29.005Z,27.10
2019-02-27T06:45:30.425Z,27.52
2019-02-27T06:46:31.852Z,25.05
2019-02-27T06:47:35.375Z,28.67
2019-02-27T06:48:36.233Z,26.37
2019-02-27T06:49:37.341Z,27.65
2019-02-27T06:50:38.456Z,28.83
2019-02-27T06:51:39.565Z,29.32
2019-02-27T06:52:42.457Z,29.15
2019-02-27T06:53:43.729Z,25.82
2019-02-27T06:54:44.900Z,28.65
2019-02-27T06:55:46.375Z,27.95
2019-02-27T06:56:47.650Z,30.15
2019-02-27T06:57:49.124Z,30.08
2019-02-27T06:58:50.739Z,23.62
2019-02-27T06:59:51.973Z,28.05
2019-02-27T07:00:53.651Z,28.87
2019-02-27T07:01:54.803Z,27.45
2019-02-27T07:02:56.224Z,27.37
2019-02-27T07:03:57.412Z,26.57
2019-02-27T07:04:58.804Z,27.55
2019-02-27T07:05:59.944Z,29.95
2019-02-27T07:07:01.057Z,31.33
2019-02-27T07:08:04.689Z,28.55
2019-02-27T07:09:05.589Z,28.25
2019-02-27T07:10:14.397Z,29.55
2019-02-27T07:11:15.950Z,30.88
2019-02-27T07:12:21.614Z,29.15
2019-02-27T07:13:21.566Z,28.10
2019-02-27T07:14:23.253Z,27.27
2019-02-27T07:15:24.491Z,30.25
2019-02-27T07:16:25.605Z,29.07
2019-02-27T07:17:29.207Z,26.40
2019-02-27T07:18:30.071Z,28.32
2019-02-27T07:19:31.192Z,27.65
2019-02-27T07:20:32.610Z,27.48
2019-02-27T07:21:33.732Z,23.57
2019-02-27T07:22:34.855Z,26.50
2019-02-27T07:23:36.314Z,26.33
2019-02-27T07:24:37.430Z,26.75
2019-02-27T07:25:42.011Z,27.93
2019-02-27T07:26:41.664Z,28.47
2019-02-27T07:27:43.091Z,27.75
2019-02-27T07:28:44.227Z,26.73
2019-02-27T07:29:45.366Z,27.22
2019-02-27T07:30:46.517Z,28.07
2019-02-27T07:31:49.528Z,28.30
2019-02-27T07:32:50.766Z,28.80
2019-02-27T07:33:51.876Z,29.23
2019-02-27T07:34:52.988Z,32.25
2019-02-27T07:35:54.359Z,29.85
2019-02-27T07:36:55.475Z,34.45
2019-02-27T07:37:56.599Z,33.85
2019-02-27T07:38:58.306Z,37.13
2019-02-27T07:39:59.580Z,35.65
2019-02-27T07:41:00.985Z,31.60
2019-02-27T07:42:02.113Z,35.50
2019-02-27T07:43:05.750Z,44.27
2019-02-27T07:44:06.464Z,38.08
2019-02-27T07:45:13.658Z,38.23
2019-02-27T07:46:15.175Z,33.42
2019-02-27T07:47:16.285Z,31.05
2019-02-27T07:48:17.729Z,38.67
2019-02-27T07:49:19.168Z,37.10
2019-02-27T07:50:20.483Z,37.58
2019-02-27T07:51:23.295Z,38.67
2019-02-27T07:52:25.004Z,39.08
2019-02-27T07:53:26.125Z,34.17
2019-02-27T07:54:29.120Z,33.10
2019-02-27T07:55:30.265Z,39.30
2019-02-27T07:56:31.710Z,40.67
2019-02-27T07:57:32.836Z,41.08
2019-02-27T07:58:34.640Z,41.57
2019-02-27T07:59:38.140Z,37.28
2019-02-27T08:00:39.292Z,37.33
2019-02-27T08:01:43.758Z,38.02
2019-02-27T08:02:43.937Z,34.77
2019-02-27T08:03:45.781Z,50.10
2019-02-27T08:04:47.065Z,35.80
2019-02-27T08:05:48.213Z,32.85
2019-02-27T08:06:49.352Z,36.98
2019-02-27T08:07:50.585Z,36.20
2019-02-27T08:08:51.749Z,41.02
2019-02-27T08:09:52.894Z,40.05
2019-02-27T08:10:54.046Z,38.43
2019-02-27T08:11:55.184Z,39.58
2019-02-27T08:12:56.736Z,41.35
2019-02-27T08:13:57.961Z,40.33
2019-02-27T08:14:59.905Z,40.05
2019-02-27T08:16:01.549Z,40.60
2019-02-27T08:17:02.989Z,43.28
2019-02-27T08:18:04.496Z,41.85
2019-02-27T08:19:05.803Z,55.80
2019-02-27T08:20:08.252Z,52.98
2019-02-27T08:21:09.669Z,49.05
2019-02-27T08:22:10.885Z,48.15
2019-02-27T08:23:12.025Z,45.25
2019-02-27T08:24:14.339Z,37.58
2019-02-27T08:25:16.985Z,34.13
2019-02-27T08:26:18.521Z,44.35
2019-02-27T08:27:19.776Z,39.63
2019-02-27T08:28:20.912Z,40.85
2019-02-27T08:29:22.323Z,43.52
2019-02-27T08:30:24.755Z,51.53
2019-02-27T08:31:28.165Z,44.55
2019-02-27T08:32:28.949Z,45.92
2019-02-27T08:33:30.093Z,53.63
2019-02-27T08:34:31.229Z,48.02
2019-02-27T08:35:32.705Z,45.20
2019-02-27T08:36:33.849Z,50.50
2019-02-27T08:37:34.979Z,43.45
2019-02-27T08:38:36.408Z,45.95
2019-02-27T08:39:37.541Z,49.98
2019-02-27T08:40:38.690Z,51.63
2019-02-27T08:41:39.926Z,49.75
2019-02-27T08:42:41.265Z,48.40
2019-02-27T08:43:42.398Z,47.30
2019-02-27T08:44:45.798Z,47.15
2019-02-27T08:45:46.861Z,57.53
2019-02-27T08:46:48.077Z,56.80
2019-02-27T08:47:49.212Z,48.55
2019-02-27T08:48:50.724Z,51.20
2019-02-27T08:49:51.980Z,49.48
2019-02-27T08:50:53.112Z,55.95
2019-02-27T08:51:54.277Z,55.88
2019-02-27T08:52:55.434Z,52.25
2019-02-27T08:53:58.979Z,53.35
2019-02-27T08:54:59.966Z,49.42
2019-02-27T08:56:01.107Z,53.33
2019-02-27T08:57:02.485Z,55.67
2019-02-27T08:58:03.630Z,52.15
2019-02-27T08:59:05.807Z,56.20
2019-02-27T09:00:14.166Z,55.50
2019-02-27T09:01:13.958Z,49.18
2019-02-27T09:02:15.171Z,54.50
2019-02-27T09:03:20.334Z,56.10
2019-02-27T09:04:19.450Z,53.95
2019-02-27T09:05:20.979Z,49.30
2019-02-27T09:06:27.369Z,46.35
2019-02-27T09:07:25.384Z,48.98
2019-02-27T09:08:26.522Z,52.05
2019-02-27T09:09:27.656Z,51.63
2019-02-27T09:10:30.685Z,47.58
2019-02-27T09:11:32.138Z,46.85
2019-02-27T09:12:33.282Z,46.33
2019-02-27T09:13:34.422Z,47.70
2019-02-27T09:14:35.843Z,50.00
2019-02-27T09:15:36.979Z,47.25
2019-02-27T09:16:38.129Z,50.00
2019-02-27T09:17:39.423Z,47.67
2019-02-27T09:18:40.902Z,45.75
2019-02-27T09:19:45.358Z,43.73
2019-02-27T09:20:45.091Z,41.50
2019-02-27T09:21:46.403Z,42.15
2019-02-27T09:22:47.845Z,45.52
2019-02-27T09:23:48.981Z,42.85
2019-02-27T09:24:50.428Z,44.48
2019-02-27T09:25:57.159Z,45.33
2019-02-27T09:26:55.039Z,45.88
2019-02-27T09:27:56.196Z,41.73
2019-02-27T09:28:57.849Z,42.78
2019-02-27T09:29:59.009Z,40.40
2019-02-27T09:31:03.170Z,46.18
2019-02-27T09:32:03.206Z,46.18
2019-02-27T09:33:04.618Z,46.20
2019-02-27T09:34:05.844Z,42.58
2019-02-27T09:35:08.985Z,43.33
2019-02-27T09:36:11.003Z,41.55
2019-02-27T09:37:13.912Z,40.50
2019-02-27T09:38:15.286Z,42.08
2019-02-27T09:39:16.683Z,40.63
2019-02-27T09:40:25.724Z,40.15
2019-02-27T09:41:26.964Z,41.23
2019-02-27T09:42:28.433Z,46.10
2019-02-27T09:43:29.825Z,38.15
2019-02-27T09:44:30.966Z,34.92
2019-02-27T09:45:35.910Z,35.65
2019-02-27T09:46:37.353Z,32.33
2019-02-27T09:47:38.505Z,32.50
2019-02-27T09:48:39.660Z,36.35
2019-02-27T09:49:41.585Z,36.60
2019-02-27T09:50:47.597Z,34.73
2019-02-27T09:51:47.576Z,33.70
2019-02-27T09:52:48.721Z,39.65
2019-02-27T09:53:49.867Z,40.73
2019-02-27T09:54:50.993Z,35.03
2019-02-27T09:55:54.346Z,35.83
2019-02-27T09:56:55.561Z,36.45
2019-02-27T09:57:56.692Z,35.25
2019-02-27T09:58:57.846Z,33.58
2019-02-27T09:59:59.065Z,33.38
2019-02-27T10:01:06.998Z,35.73
2019-02-27T10:02:09.280Z,34.65
2019-02-27T10:03:11.062Z,31.40
2019-02-27T10:04:12.205Z,31.40
2019-02-27T10:05:13.440Z,34.10
2019-02-27T10:06:14.681Z,32.20
2019-02-27T10:07:17.079Z,32.17
2019-02-27T10:08:18.369Z,32.93
2019-02-27T10:09:19.524Z,34.13
2019-02-27T10:10:20.945Z,32.98
2019-02-27T10:11:22.442Z,33.15
2019-02-27T10:12:27.053Z,33.88
2019-02-27T10:13:27.115Z,31.48
2019-02-27T10:14:28.542Z,31.07
2019-02-27T10:15:29.701Z,31.37
2019-02-27T10:16:34.625Z,32.73
2019-02-27T10:17:33.917Z,31.30
2019-02-27T10:18:35.448Z,28.90
2019-02-27T10:19:36.596Z,28.42
2019-02-27T10:20:38.113Z,32.35
2019-02-27T10:21:41.222Z,36.93
2019-02-27T10:22:42.300Z,30.92
2019-02-27T10:23:43.753Z,39.48
2019-02-27T10:24:45.144Z,36.75
2019-02-27T10:25:46.633Z,31.12
2019-02-27T10:26:47.769Z,32.85
2019-02-27T10:27:48.921Z,31.40
2019-02-27T10:28:50.784Z,32.28
2019-02-27T10:29:51.966Z,37.03
2019-02-27T10:30:53.109Z,30.80
2019-02-27T10:31:55.426Z,32.85
2019-02-27T10:32:57.020Z,32.60
2019-02-27T10:33:58.166Z,30.95
2019-02-27T10:34:59.298Z,32.15
2019-02-27T10:36:03.417Z,31.02
2019-02-27T10:37:03.844Z,29.80
2019-02-27T10:38:05.551Z,30.52
2019-02-27T10:39:07.101Z,29.20
2019-02-27T10:40:14.162Z,28.90
2019-02-27T10:41:15.302Z,31.25
2019-02-27T10:42:16.641Z,32.17
2019-02-27T10:43:17.827Z,33.05
2019-02-27T10:44:18.961Z,29.95
2019-02-27T10:45:20.449Z,32.38
2019-02-27T10:46:23.765Z,32.50
2019-02-27T10:47:25.584Z,29.87
2019-02-27T10:48:26.732Z,29.15
2019-02-27T10:49:27.900Z,33.15
2019-02-27T10:50:29.053Z,31.02
2019-02-27T10:51:30.499Z,29.55
2019-02-27T10:52:32.065Z,28.35
2019-02-27T10:53:33.217Z,27.10
2019-02-27T10:54:37.012Z,31.05
2019-02-27T10:55:37.678Z,32.67
2019-02-27T10:56:38.808Z,32.83
2019-02-27T10:57:39.962Z,32.05
2019-02-27T10:58:41.209Z,34.75
2019-02-27T10:59:42.457Z,25.32
2019-02-27T11:00:46.379Z,28.65
2019-02-27T11:01:47.615Z,32.85
2019-02-27T11:02:52.253Z,25.62
2019-02-27T11:03:54.577Z,30.25
2019-02-27T11:04:55.837Z,24.55
2019-02-27T11:05:56.979Z,24.52
2019-02-27T11:06:58.117Z,32.58
2019-02-27T11:07:59.604Z,27.10
2019-02-27T11:09:04.492Z,28.17
2019-02-27T11:10:07.549Z,25.92
2019-02-27T11:11:08.873Z,28.27
2019-02-27T11:12:10.124Z,31.37
2019-02-27T11:13:11.277Z,25.57
2019-02-27T11:14:12.424Z,28.02
2019-02-27T11:15:17.620Z,24.85
2019-02-27T11:16:21.269Z,30.08
2019-02-27T11:17:22.083Z,30.85
2019-02-27T11:18:23.518Z,28.55
2019-02-27T11:19:24.777Z,27.05
2019-02-27T11:20:25.902Z,21.57
2019-02-27T11:21:27.033Z,24.65
2019-02-27T11:22:31.652Z,31.65
2019-02-27T11:23:31.225Z,24.55
2019-02-27T11:24:32.359Z,25.05
2019-02-27T11:25:33.501Z,28.05
2019-02-27T11:26:34.662Z,22.10
2019-02-27T11:27:36.336Z,26.17
2019-02-27T11:28:38.866Z,30.20
2019-02-27T11:29:40.021Z,27.77
2019-02-27T11:30:41.971Z,25.70
2019-02-27T11:31:45.543Z,21.37
2019-02-27T11:32:46.536Z,21.95
2019-02-27T11:33:47.926Z,27.13
2019-02-27T11:34:49.233Z,22.87
2019-02-27T11:35:50.394Z,21.82
2019-02-27T11:36:51.538Z,26.23
2019-02-27T11:37:54.893Z,19.82
2019-02-27T11:38:56.672Z,25.82
2019-02-27T11:40:00.223Z,25.00
2019-02-27T11:41:01.670Z,23.00
2019-02-27T11:42:03.029Z,29.23
2019-02-27T11:43:06.964Z,26.45
2019-02-27T11:44:07.369Z,24.77
2019-02-27T11:45:11.381Z,24.00
2019-02-27T11:46:12.525Z,24.52
2019-02-27T11:47:13.669Z,24.67
2019-02-27T11:48:15.129Z,26.00
2019-02-27T11:49:16.329Z,19.75
2019-02-27T11:50:18.755Z,22.50
2019-02-27T11:51:20.204Z,20.23
2019-02-27T11:52:21.546Z,23.65
2019-02-27T11:53:23.389Z,21.17
2019-02-27T11:54:24.537Z,25.17
2019-02-27T11:55:25.930Z,22.52
2019-02-27T11:56:27.104Z,21.75
2019-02-27T11:57:30.606Z,21.75
2019-02-27T11:58:31.485Z,21.50
2019-02-27T11:59:32.641Z,20.08
2019-02-27T12:00:33.983Z,23.00
2019-02-27T12:01:35.119Z,25.25
2019-02-27T12:02:37.776Z,19.23
2019-02-27T12:03:39.081Z,20.80
2019-02-27T12:04:40.222Z,22.90
2019-02-27T12:05:41.605Z,19.82
2019-02-27T12:06:42.746Z,19.80
2019-02-27T12:07:43.981Z,21.15
2019-02-27T12:08:45.114Z,21.45
2019-02-27T12:09:46.357Z,20.12
2019-02-27T12:10:47.537Z,22.27
2019-02-27T12:11:49.465Z,23.52
2019-02-27T12:12:50.822Z,21.12
2019-02-27T12:13:52.261Z,17.92
2019-02-27T12:14:53.409Z,20.60
2019-02-27T12:15:54.833Z,19.37
2019-02-27T12:16:55.970Z,18.48
2019-02-27T12:18:00.292Z,19.87
2019-02-27T12:19:00.638Z,19.65
2019-02-27T12:20:03.201Z,19.42
2019-02-27T12:21:04.456Z,18.30
2019-02-27T12:22:05.588Z,19.40
2019-02-27T12:23:07.540Z,24.02
2019-02-27T12:24:09.871Z,19.62
2019-02-27T12:25:15.598Z,19.10
2019-02-27T12:26:16.940Z,19.62
2019-02-27T12:27:37.802Z,18.82
2019-02-27T12:28:21.800Z,19.50
2019-02-27T12:29:24.195Z,20.15
2019-02-27T12:30:27.500Z,20.17
2019-02-27T12:31:28.634Z,16.52
2019-02-27T12:32:29.979Z,22.82
2019-02-27T12:33:31.118Z,22.62
2019-02-27T12:34:34.049Z,19.57
2019-02-27T12:35:35.917Z,19.65
2019-02-27T12:36:37.130Z,18.23
2019-02-27T12:37:38.532Z,17.35
2019-02-27T12:38:42.352Z,22.87
2019-02-27T12:39:43.607Z,20.25
2019-02-27T12:40:44.861Z,19.87
2019-02-27T12:41:49.144Z,24.55
2019-02-27T12:42:50.616Z,18.02
2019-02-27T12:43:52.642Z,18.10
2019-02-27T12:44:54.695Z,18.95
2019-02-27T12:46:01.079Z,16.12
2019-02-27T12:47:01.177Z,18.15
2019-02-27T12:48:02.318Z,18.17
2019-02-27T12:49:03.557Z,16.00
2019-02-27T12:50:08.500Z,15.05
2019-02-27T12:51:11.003Z,16.20
2019-02-27T12:52:15.285Z,14.53
2019-02-27T12:53:20.743Z,16.00
2019-02-27T12:54:19.593Z,18.15
2019-02-27T12:55:20.986Z,15.05
2019-02-27T12:56:22.136Z,16.35
2019-02-27T12:57:23.279Z,15.23
2019-02-27T12:58:25.937Z,18.77
2019-02-27T12:59:27.081Z,19.40
2019-02-27T13:00:29.527Z,17.57
2019-02-27T13:01:30.674Z,14.68
2019-02-27T13:02:35.838Z,16.97
2019-02-27T13:03:42.225Z,17.75
2019-02-27T13:04:40.881Z,16.10
2019-02-27T13:05:43.086Z,16.73
2019-02-27T13:06:44.240Z,13.55
2019-02-27T13:07:45.532Z,13.50
2019-02-27T13:08:46.742Z,13.58
2019-02-27T13:09:48.225Z,12.37
2019-02-27T13:10:49.574Z,10.40
2019-02-27T13:11:50.760Z,13.62
2019-02-27T13:12:52.582Z,10.53
2019-02-27T13:13:53.914Z,11.38
2019-02-27T13:14:55.073Z,15.55
2019-02-27T13:15:56.296Z,14.83
2019-02-27T13:16:57.313Z,17.95
2019-02-27T13:18:00.392Z,14.25
2019-02-27T13:19:06.281Z,15.30
2019-02-27T13:20:09.053Z,14.95
2019-02-27T13:21:11.843Z,13.08
2019-02-27T13:22:13.294Z,12.33
2019-02-27T13:23:14.730Z,12.40
2019-02-27T13:24:16.191Z,12.03
2019-02-27T13:25:17.667Z,9.38
2019-02-27T13:26:20.782Z,9.63
2019-02-27T13:27:25.177Z,12.00
2019-02-27T13:28:26.427Z,10.05
2019-02-27T13:29:27.584Z,9.40
2019-02-27T13:30:28.732Z,9.60
2019-02-27T13:31:29.881Z,7.78
2019-02-27T13:32:31.021Z,8.28
2019-02-27T13:33:32.921Z,7.17
2019-02-27T13:34:34.215Z,8.00
2019-02-27T13:35:35.358Z,10.03
2019-02-27T13:36:36.570Z,7.53
2019-02-27T13:37:37.805Z,6.35
2019-02-27T13:38:39.205Z,6.35
2019-02-27T13:39:40.337Z,7.55
2019-02-27T13:40:41.477Z,6.20
2019-02-27T13:41:45.663Z,6.53
2019-02-27T13:42:45.809Z,6.67
2019-02-27T13:43:46.942Z,10.03
2019-02-27T13:44:48.078Z,6.85